sensor_id;sensor_type;location;lat;lon;timestamp;P1;durP1;ratioP1;P2;durP2;ratioP2
59856;SDS011;45733;52.668;6.860;2024-03-17T00:00:30;1.00;;;1.00;;
59856;SDS011;45733;52.668;6.860;2024-03-17T00:02:56;1.00;;;1.00;;
59856;SDS011;45733;52.668;6.860;2024-03-17T00:05:22;1.05;;;1.05;;
59856;SDS011;45733;52.668;6.860;2024-03-17T00:07:47;1.15;;;1.15;;
59856;SDS011;45733;52.668;6.860;2024-03-17T00:10:13;1.05;;;1.05;;
59856;SDS011;45733;52.668;6.860;2024-03-17T00:12:40;1.00;;;1.00;;
59856;SDS011;45733;52.668;6.860;2024-03-17T00:15:06;1.08;;;1.08;;
59856;SDS011;45733;52.668;6.860;2024-03-17T00:17:33;1.10;;;1.10;;
59856;SDS011;45733;52.668;6.860;2024-03-17T00:20:00;0.95;;;0.95;;
59856;SDS011;45733;52.668;6.860;2024-03-17T00:22:34;1.00;;;1.00;;
59856;SDS011;45733;52.668;6.860;2024-03-17T00:25:04;1.00;;;1.00;;
59856;SDS011;45733;52.668;6.860;2024-03-17T00:27:31;1.00;;;1.00;;
59856;SDS011;45733;52.668;6.860;2024-03-17T00:29:57;1.00;;;1.00;;
59856;SDS011;45733;52.668;6.860;2024-03-17T00:32:22;1.00;;;1.00;;
59856;SDS011;45733;52.668;6.860;2024-03-17T00:34:49;1.10;;;1.10;;
59856;SDS011;45733;52.668;6.860;2024-03-17T00:37:14;1.10;;;1.10;;
59856;SDS011;45733;52.668;6.860;2024-03-17T00:39:40;1.15;;;1.15;;
59856;SDS011;45733;52.668;6.860;2024-03-17T00:42:06;1.00;;;1.00;;
59856;SDS011;45733;52.668;6.860;2024-03-17T00:44:31;1.00;;;1.00;;
59856;SDS011;45733;52.668;6.860;2024-03-17T00:46:57;1.00;;;1.00;;
59856;SDS011;45733;52.668;6.860;2024-03-17T00:49:23;1.02;;;1.02;;
59856;SDS011;45733;52.668;6.860;2024-03-17T00:51:48;1.10;;;1.10;;
59856;SDS011;45733;52.668;6.860;2024-03-17T00:54:18;1.10;;;1.10;;
59856;SDS011;45733;52.668;6.860;2024-03-17T00:56:44;1.00;;;1.00;;
59856;SDS011;45733;52.668;6.860;2024-03-17T00:59:09;0.98;;;0.98;;
59856;SDS011;45733;52.668;6.860;2024-03-17T01:01:35;0.98;;;0.98;;
59856;SDS011;45733;52.668;6.860;2024-03-17T01:04:01;1.00;;;1.00;;
59856;SDS011;45733;52.668;6.860;2024-03-17T01:06:26;0.90;;;0.90;;
59856;SDS011;45733;52.668;6.860;2024-03-17T01:08:52;1.00;;;1.00;;
59856;SDS011;45733;52.668;6.860;2024-03-17T01:11:18;0.90;;;0.90;;
59856;SDS011;45733;52.668;6.860;2024-03-17T01:13:44;0.90;;;0.90;;
59856;SDS011;45733;52.668;6.860;2024-03-17T01:16:11;0.98;;;0.98;;
59856;SDS011;45733;52.668;6.860;2024-03-17T01:18:37;1.10;;;1.10;;
59856;SDS011;45733;52.668;6.860;2024-03-17T01:21:04;1.00;;;1.00;;
59856;SDS011;45733;52.668;6.860;2024-03-17T01:23:31;1.10;;;1.10;;
59856;SDS011;45733;52.668;6.860;2024-03-17T01:25:57;1.17;;;1.17;;
59856;SDS011;45733;52.668;6.860;2024-03-17T01:28:23;1.08;;;1.08;;
59856;SDS011;45733;52.668;6.860;2024-03-17T01:30:49;1.15;;;1.15;;
59856;SDS011;45733;52.668;6.860;2024-03-17T01:33:14;1.10;;;1.10;;
59856;SDS011;45733;52.668;6.860;2024-03-17T01:35:42;1.10;;;1.10;;
59856;SDS011;45733;52.668;6.860;2024-03-17T01:38:08;1.08;;;1.08;;
59856;SDS011;45733;52.668;6.860;2024-03-17T01:40:35;1.15;;;1.15;;
59856;SDS011;45733;52.668;6.860;2024-03-17T01:43:01;1.10;;;1.10;;
59856;SDS011;45733;52.668;6.860;2024-03-17T01:45:30;1.10;;;1.10;;
59856;SDS011;45733;52.668;6.860;2024-03-17T01:47:58;1.20;;;1.20;;
59856;SDS011;45733;52.668;6.860;2024-03-17T01:50:26;1.17;;;1.17;;
59856;SDS011;45733;52.668;6.860;2024-03-17T01:53:00;1.23;;;1.23;;
59856;SDS011;45733;52.668;6.860;2024-03-17T01:55:30;1.23;;;1.23;;
59856;SDS011;45733;52.668;6.860;2024-03-17T01:57:57;1.15;;;1.15;;
59856;SDS011;45733;52.668;6.860;2024-03-17T02:00:23;0.93;;;0.93;;
59856;SDS011;45733;52.668;6.860;2024-03-17T02:02:49;1.02;;;1.02;;
59856;SDS011;45733;52.668;6.860;2024-03-17T02:05:15;0.95;;;0.95;;
59856;SDS011;45733;52.668;6.860;2024-03-17T02:07:40;0.93;;;0.93;;
59856;SDS011;45733;52.668;6.860;2024-03-17T02:10:06;0.90;;;0.90;;
59856;SDS011;45733;52.668;6.860;2024-03-17T02:12:33;0.80;;;0.80;;
59856;SDS011;45733;52.668;6.860;2024-03-17T02:15:00;0.90;;;0.90;;
59856;SDS011;45733;52.668;6.860;2024-03-17T02:17:30;0.90;;;0.90;;
59856;SDS011;45733;52.668;6.860;2024-03-17T02:19:56;0.90;;;0.90;;
59856;SDS011;45733;52.668;6.860;2024-03-17T02:22:22;0.90;;;0.90;;
59856;SDS011;45733;52.668;6.860;2024-03-17T02:24:48;0.80;;;0.80;;
59856;SDS011;45733;52.668;6.860;2024-03-17T02:27:13;0.90;;;0.90;;
59856;SDS011;45733;52.668;6.860;2024-03-17T02:29:39;0.82;;;0.82;;
59856;SDS011;45733;52.668;6.860;2024-03-17T02:32:08;0.90;;;0.90;;
59856;SDS011;45733;52.668;6.860;2024-03-17T02:34:37;0.90;;;0.90;;
59856;SDS011;45733;52.668;6.860;2024-03-17T02:37:04;0.90;;;0.90;;
59856;SDS011;45733;52.668;6.860;2024-03-17T02:39:32;0.90;;;0.90;;
59856;SDS011;45733;52.668;6.860;2024-03-17T02:42:05;0.90;;;0.90;;
59856;SDS011;45733;52.668;6.860;2024-03-17T02:44:35;0.90;;;0.90;;
59856;SDS011;45733;52.668;6.860;2024-03-17T02:47:02;0.90;;;0.90;;
59856;SDS011;45733;52.668;6.860;2024-03-17T02:49:35;0.93;;;0.93;;
59856;SDS011;45733;52.668;6.860;2024-03-17T02:52:05;0.80;;;0.80;;
59856;SDS011;45733;52.668;6.860;2024-03-17T02:54:35;0.90;;;0.90;;
59856;SDS011;45733;52.668;6.860;2024-03-17T02:57:02;0.90;;;0.90;;
59856;SDS011;45733;52.668;6.860;2024-03-17T02:59:28;0.80;;;0.80;;
59856;SDS011;45733;52.668;6.860;2024-03-17T03:01:55;1.00;;;1.00;;
59856;SDS011;45733;52.668;6.860;2024-03-17T03:04:20;0.90;;;0.90;;
59856;SDS011;45733;52.668;6.860;2024-03-17T03:06:46;0.88;;;0.88;;
59856;SDS011;45733;52.668;6.860;2024-03-17T03:09:13;0.90;;;0.90;;
59856;SDS011;45733;52.668;6.860;2024-03-17T03:11:42;0.90;;;0.90;;
59856;SDS011;45733;52.668;6.860;2024-03-17T03:14:08;0.88;;;0.88;;
59856;SDS011;45733;52.668;6.860;2024-03-17T03:16:33;0.90;;;0.90;;
59856;SDS011;45733;52.668;6.860;2024-03-17T03:18:59;0.88;;;0.88;;
59856;SDS011;45733;52.668;6.860;2024-03-17T03:21:25;0.90;;;0.90;;
59856;SDS011;45733;52.668;6.860;2024-03-17T03:23:51;0.90;;;0.90;;
59856;SDS011;45733;52.668;6.860;2024-03-17T03:26:17;0.88;;;0.88;;
59856;SDS011;45733;52.668;6.860;2024-03-17T03:28:43;0.82;;;0.82;;
59856;SDS011;45733;52.668;6.860;2024-03-17T03:31:12;0.88;;;0.88;;
59856;SDS011;45733;52.668;6.860;2024-03-17T03:33:39;0.90;;;0.90;;
59856;SDS011;45733;52.668;6.860;2024-03-17T03:38:35;0.90;;;0.90;;
59856;SDS011;45733;52.668;6.860;2024-03-17T03:41:08;0.90;;;0.90;;
59856;SDS011;45733;52.668;6.860;2024-03-17T03:43:34;0.90;;;0.90;;
59856;SDS011;45733;52.668;6.860;2024-03-17T03:46:01;0.90;;;0.90;;
59856;SDS011;45733;52.668;6.860;2024-03-17T03:48:27;0.90;;;0.90;;
59856;SDS011;45733;52.668;6.860;2024-03-17T03:50:53;0.90;;;0.90;;
59856;SDS011;45733;52.668;6.860;2024-03-17T03:53:21;0.90;;;0.90;;
59856;SDS011;45733;52.668;6.860;2024-03-17T03:55:48;0.90;;;0.90;;
59856;SDS011;45733;52.668;6.860;2024-03-17T03:58:14;0.95;;;0.95;;
59856;SDS011;45733;52.668;6.860;2024-03-17T04:00:40;0.90;;;0.90;;
59856;SDS011;45733;52.668;6.860;2024-03-17T04:03:06;0.90;;;0.90;;
59856;SDS011;45733;52.668;6.860;2024-03-17T04:05:31;0.90;;;0.90;;
59856;SDS011;45733;52.668;6.860;2024-03-17T04:07:58;0.90;;;0.90;;
59856;SDS011;45733;52.668;6.860;2024-03-17T04:10:24;0.90;;;0.90;;
59856;SDS011;45733;52.668;6.860;2024-03-17T04:12:50;0.90;;;0.90;;
59856;SDS011;45733;52.668;6.860;2024-03-17T04:15:16;0.90;;;0.90;;
59856;SDS011;45733;52.668;6.860;2024-03-17T04:17:42;0.90;;;0.90;;
59856;SDS011;45733;52.668;6.860;2024-03-17T04:20:08;0.90;;;0.90;;
59856;SDS011;45733;52.668;6.860;2024-03-17T04:22:38;0.90;;;0.90;;
59856;SDS011;45733;52.668;6.860;2024-03-17T04:25:04;0.90;;;0.90;;
59856;SDS011;45733;52.668;6.860;2024-03-17T04:27:30;0.90;;;0.90;;
59856;SDS011;45733;52.668;6.860;2024-03-17T04:29:56;0.90;;;0.90;;
59856;SDS011;45733;52.668;6.860;2024-03-17T04:32:24;0.90;;;0.90;;
59856;SDS011;45733;52.668;6.860;2024-03-17T04:34:52;0.90;;;0.90;;
59856;SDS011;45733;52.668;6.860;2024-03-17T04:37:17;0.80;;;0.80;;
59856;SDS011;45733;52.668;6.860;2024-03-17T04:39:44;0.90;;;0.90;;
59856;SDS011;45733;52.668;6.860;2024-03-17T04:42:11;0.80;;;0.80;;
59856;SDS011;45733;52.668;6.860;2024-03-17T04:44:39;0.85;;;0.85;;
59856;SDS011;45733;52.668;6.860;2024-03-17T04:47:05;0.80;;;0.80;;
59856;SDS011;45733;52.668;6.860;2024-03-17T04:49:41;0.80;;;0.80;;
59856;SDS011;45733;52.668;6.860;2024-03-17T04:52:09;0.80;;;0.80;;
59856;SDS011;45733;52.668;6.860;2024-03-17T04:54:36;0.85;;;0.85;;
59856;SDS011;45733;52.668;6.860;2024-03-17T04:57:02;0.80;;;0.80;;
59856;SDS011;45733;52.668;6.860;2024-03-17T04:59:28;0.80;;;0.80;;
59856;SDS011;45733;52.668;6.860;2024-03-17T05:01:54;0.80;;;0.80;;
59856;SDS011;45733;52.668;6.860;2024-03-17T05:04:20;0.80;;;0.80;;
59856;SDS011;45733;52.668;6.860;2024-03-17T05:06:46;0.80;;;0.80;;
59856;SDS011;45733;52.668;6.860;2024-03-17T05:09:17;0.80;;;0.80;;
59856;SDS011;45733;52.668;6.860;2024-03-17T05:11:44;0.80;;;0.80;;
59856;SDS011;45733;52.668;6.860;2024-03-17T05:14:10;0.95;;;0.95;;
59856;SDS011;45733;52.668;6.860;2024-03-17T05:16:36;0.90;;;0.90;;
59856;SDS011;45733;52.668;6.860;2024-03-17T05:19:01;0.80;;;0.80;;
59856;SDS011;45733;52.668;6.860;2024-03-17T05:21:28;0.90;;;0.90;;
59856;SDS011;45733;52.668;6.860;2024-03-17T05:23:55;0.90;;;0.90;;
59856;SDS011;45733;52.668;6.860;2024-03-17T05:26:22;0.90;;;0.90;;
59856;SDS011;45733;52.668;6.860;2024-03-17T05:28:49;0.90;;;0.90;;
59856;SDS011;45733;52.668;6.860;2024-03-17T05:31:15;0.90;;;0.90;;
59856;SDS011;45733;52.668;6.860;2024-03-17T05:33:42;0.90;;;0.90;;
59856;SDS011;45733;52.668;6.860;2024-03-17T05:36:11;0.90;;;0.90;;
59856;SDS011;45733;52.668;6.860;2024-03-17T05:38:36;0.90;;;0.90;;
59856;SDS011;45733;52.668;6.860;2024-03-17T05:41:03;0.90;;;0.90;;
59856;SDS011;45733;52.668;6.860;2024-03-17T05:43:33;0.82;;;0.82;;
59856;SDS011;45733;52.668;6.860;2024-03-17T05:46:10;1.00;;;1.00;;
59856;SDS011;45733;52.668;6.860;2024-03-17T05:51:07;0.90;;;0.90;;
59856;SDS011;45733;52.668;6.860;2024-03-17T05:53:38;0.90;;;0.90;;
59856;SDS011;45733;52.668;6.860;2024-03-17T05:56:05;0.90;;;0.90;;
59856;SDS011;45733;52.668;6.860;2024-03-17T05:58:33;0.90;;;0.90;;
59856;SDS011;45733;52.668;6.860;2024-03-17T06:01:01;0.90;;;0.90;;
59856;SDS011;45733;52.668;6.860;2024-03-17T06:03:27;0.90;;;0.90;;
59856;SDS011;45733;52.668;6.860;2024-03-17T06:05:53;1.00;;;1.00;;
59856;SDS011;45733;52.668;6.860;2024-03-17T06:08:19;0.90;;;0.90;;
59856;SDS011;45733;52.668;6.860;2024-03-17T06:10:45;1.00;;;1.00;;
59856;SDS011;45733;52.668;6.860;2024-03-17T06:13:12;0.90;;;0.90;;
59856;SDS011;45733;52.668;6.860;2024-03-17T06:15:41;0.93;;;0.93;;
59856;SDS011;45733;52.668;6.860;2024-03-17T06:18:08;0.93;;;0.93;;
59856;SDS011;45733;52.668;6.860;2024-03-17T06:20:42;0.90;;;0.90;;
59856;SDS011;45733;52.668;6.860;2024-03-17T06:23:09;0.90;;;0.90;;
59856;SDS011;45733;52.668;6.860;2024-03-17T06:25:43;0.95;;;0.95;;
59856;SDS011;45733;52.668;6.860;2024-03-17T06:28:10;0.95;;;0.95;;
59856;SDS011;45733;52.668;6.860;2024-03-17T06:30:54;0.90;;;0.90;;
59856;SDS011;45733;52.668;6.860;2024-03-17T06:33:24;1.10;;;1.10;;
59856;SDS011;45733;52.668;6.860;2024-03-17T06:35:50;0.93;;;0.93;;
59856;SDS011;45733;52.668;6.860;2024-03-17T06:38:16;1.00;;;1.00;;
59856;SDS011;45733;52.668;6.860;2024-03-17T06:40:47;0.90;;;0.90;;
59856;SDS011;45733;52.668;6.860;2024-03-17T06:43:14;1.00;;;1.00;;
59856;SDS011;45733;52.668;6.860;2024-03-17T06:45:39;1.00;;;1.00;;
59856;SDS011;45733;52.668;6.860;2024-03-17T06:48:05;1.10;;;1.10;;
59856;SDS011;45733;52.668;6.860;2024-03-17T06:50:32;1.20;;;1.20;;
59856;SDS011;45733;52.668;6.860;2024-03-17T06:52:58;1.10;;;1.10;;
59856;SDS011;45733;52.668;6.860;2024-03-17T06:55:23;1.10;;;1.10;;
59856;SDS011;45733;52.668;6.860;2024-03-17T06:57:49;1.08;;;1.08;;
59856;SDS011;45733;52.668;6.860;2024-03-17T07:00:16;1.10;;;1.10;;
59856;SDS011;45733;52.668;6.860;2024-03-17T07:02:43;1.00;;;1.00;;
59856;SDS011;45733;52.668;6.860;2024-03-17T07:05:12;1.10;;;1.10;;
59856;SDS011;45733;52.668;6.860;2024-03-17T07:07:41;1.10;;;1.10;;
59856;SDS011;45733;52.668;6.860;2024-03-17T07:10:08;1.20;;;1.20;;
59856;SDS011;45733;52.668;6.860;2024-03-17T07:12:36;1.00;;;1.00;;
59856;SDS011;45733;52.668;6.860;2024-03-17T07:15:02;1.00;;;1.00;;
59856;SDS011;45733;52.668;6.860;2024-03-17T07:17:28;1.00;;;1.00;;
59856;SDS011;45733;52.668;6.860;2024-03-17T07:19:54;1.10;;;1.10;;
59856;SDS011;45733;52.668;6.860;2024-03-17T07:22:20;1.00;;;1.00;;
59856;SDS011;45733;52.668;6.860;2024-03-17T07:24:47;1.00;;;1.00;;
59856;SDS011;45733;52.668;6.860;2024-03-17T07:27:15;1.00;;;1.00;;
59856;SDS011;45733;52.668;6.860;2024-03-17T07:29:40;1.02;;;1.02;;
59856;SDS011;45733;52.668;6.860;2024-03-17T07:32:06;1.00;;;1.00;;
59856;SDS011;45733;52.668;6.860;2024-03-17T07:34:32;1.10;;;1.10;;
59856;SDS011;45733;52.668;6.860;2024-03-17T07:37:00;1.10;;;1.10;;
59856;SDS011;45733;52.668;6.860;2024-03-17T07:39:29;1.10;;;1.10;;
59856;SDS011;45733;52.668;6.860;2024-03-17T07:42:00;1.00;;;1.00;;
59856;SDS011;45733;52.668;6.860;2024-03-17T07:44:30;1.10;;;1.10;;
59856;SDS011;45733;52.668;6.860;2024-03-17T07:47:00;1.10;;;1.10;;
59856;SDS011;45733;52.668;6.860;2024-03-17T07:49:26;1.00;;;1.00;;
59856;SDS011;45733;52.668;6.860;2024-03-17T07:51:51;1.05;;;1.05;;
59856;SDS011;45733;52.668;6.860;2024-03-17T07:54:17;1.02;;;1.02;;
59856;SDS011;45733;52.668;6.860;2024-03-17T07:56:44;0.90;;;0.90;;
59856;SDS011;45733;52.668;6.860;2024-03-17T07:59:11;1.00;;;1.00;;
59856;SDS011;45733;52.668;6.860;2024-03-17T08:01:41;0.90;;;0.90;;
59856;SDS011;45733;52.668;6.860;2024-03-17T08:04:07;0.90;;;0.90;;
59856;SDS011;45733;52.668;6.860;2024-03-17T08:06:32;0.90;;;0.90;;
59856;SDS011;45733;52.668;6.860;2024-03-17T08:08:58;0.93;;;0.93;;
59856;SDS011;45733;52.668;6.860;2024-03-17T08:11:24;0.90;;;0.90;;
59856;SDS011;45733;52.668;6.860;2024-03-17T08:13:49;1.00;;;1.00;;
59856;SDS011;45733;52.668;6.860;2024-03-17T08:16:15;1.00;;;1.00;;
59856;SDS011;45733;52.668;6.860;2024-03-17T08:18:42;1.00;;;1.00;;
59856;SDS011;45733;52.668;6.860;2024-03-17T08:21:08;1.05;;;1.05;;
59856;SDS011;45733;52.668;6.860;2024-03-17T08:23:34;1.10;;;1.10;;
59856;SDS011;45733;52.668;6.860;2024-03-17T08:26:04;1.02;;;1.02;;
59856;SDS011;45733;52.668;6.860;2024-03-17T08:28:30;1.02;;;1.02;;
59856;SDS011;45733;52.668;6.860;2024-03-17T08:31:04;1.02;;;1.02;;
59856;SDS011;45733;52.668;6.860;2024-03-17T08:33:30;1.05;;;1.05;;
59856;SDS011;45733;52.668;6.860;2024-03-17T08:35:58;1.13;;;1.13;;
59856;SDS011;45733;52.668;6.860;2024-03-17T08:38:27;1.08;;;1.08;;
59856;SDS011;45733;52.668;6.860;2024-03-17T08:40:54;1.02;;;1.02;;
59856;SDS011;45733;52.668;6.860;2024-03-17T08:43:20;0.98;;;0.98;;
59856;SDS011;45733;52.668;6.860;2024-03-17T08:48:27;1.02;;;1.02;;
59856;SDS011;45733;52.668;6.860;2024-03-17T08:50:54;1.02;;;1.02;;
59856;SDS011;45733;52.668;6.860;2024-03-17T08:53:20;1.00;;;1.00;;
59856;SDS011;45733;52.668;6.860;2024-03-17T08:55:46;1.02;;;1.02;;
59856;SDS011;45733;52.668;6.860;2024-03-17T08:58:12;1.00;;;1.00;;
59856;SDS011;45733;52.668;6.860;2024-03-17T09:00:38;1.00;;;1.00;;
59856;SDS011;45733;52.668;6.860;2024-03-17T09:03:06;1.05;;;1.05;;
59856;SDS011;45733;52.668;6.860;2024-03-17T09:05:35;1.05;;;1.05;;
59856;SDS011;45733;52.668;6.860;2024-03-17T09:08:01;1.15;;;1.15;;
59856;SDS011;45733;52.668;6.860;2024-03-17T09:10:27;1.52;;;1.42;;
59856;SDS011;45733;52.668;6.860;2024-03-17T09:12:52;1.40;;;1.35;;
59856;SDS011;45733;52.668;6.860;2024-03-17T09:15:18;1.27;;;1.27;;
59856;SDS011;45733;52.668;6.860;2024-03-17T09:17:44;1.30;;;1.30;;
59856;SDS011;45733;52.668;6.860;2024-03-17T09:20:11;1.30;;;1.30;;
59856;SDS011;45733;52.668;6.860;2024-03-17T09:22:38;1.58;;;1.48;;
59856;SDS011;45733;52.668;6.860;2024-03-17T09:25:07;1.77;;;1.67;;
59856;SDS011;45733;52.668;6.860;2024-03-17T09:27:34;1.90;;;1.80;;
59856;SDS011;45733;52.668;6.860;2024-03-17T09:30:02;1.75;;;1.65;;
59856;SDS011;45733;52.668;6.860;2024-03-17T09:32:31;1.77;;;1.67;;
59856;SDS011;45733;52.668;6.860;2024-03-17T09:34:57;1.52;;;1.45;;
59856;SDS011;45733;52.668;6.860;2024-03-17T09:37:22;1.45;;;1.40;;
59856;SDS011;45733;52.668;6.860;2024-03-17T09:39:48;1.83;;;1.73;;
59856;SDS011;45733;52.668;6.860;2024-03-17T09:42:19;1.55;;;1.48;;
59856;SDS011;45733;52.668;6.860;2024-03-17T09:44:48;1.48;;;1.42;;
59856;SDS011;45733;52.668;6.860;2024-03-17T09:47:19;1.50;;;1.45;;
59856;SDS011;45733;52.668;6.860;2024-03-17T09:49:49;1.55;;;1.50;;
59856;SDS011;45733;52.668;6.860;2024-03-17T09:52:22;1.50;;;1.45;;
59856;SDS011;45733;52.668;6.860;2024-03-17T09:54:53;1.90;;;1.80;;
59856;SDS011;45733;52.668;6.860;2024-03-17T09:57:26;1.67;;;1.58;;
59856;SDS011;45733;52.668;6.860;2024-03-17T09:59:54;2.25;;;2.15;;
59856;SDS011;45733;52.668;6.860;2024-03-17T10:02:20;2.08;;;1.98;;
59856;SDS011;45733;52.668;6.860;2024-03-17T10:04:47;2.10;;;2.00;;
59856;SDS011;45733;52.668;6.860;2024-03-17T10:07:12;2.50;;;2.38;;
59856;SDS011;45733;52.668;6.860;2024-03-17T10:09:39;3.53;;;3.33;;
59856;SDS011;45733;52.668;6.860;2024-03-17T10:12:26;2.38;;;2.28;;
59856;SDS011;45733;52.668;6.860;2024-03-17T10:14:58;2.20;;;2.10;;
59856;SDS011;45733;52.668;6.860;2024-03-17T10:17:34;1.85;;;1.75;;
59856;SDS011;45733;52.668;6.860;2024-03-17T10:23:16;1.75;;;1.65;;
59856;SDS011;45733;52.668;6.860;2024-03-17T10:28:04;1.92;;;1.83;;
59856;SDS011;45733;52.668;6.860;2024-03-17T10:30:39;2.08;;;1.98;;
59856;SDS011;45733;52.668;6.860;2024-03-17T10:33:05;2.08;;;1.98;;
59856;SDS011;45733;52.668;6.860;2024-03-17T10:35:35;1.85;;;1.75;;
59856;SDS011;45733;52.668;6.860;2024-03-17T10:38:04;1.90;;;1.80;;
59856;SDS011;45733;52.668;6.860;2024-03-17T10:40:31;1.80;;;1.70;;
59856;SDS011;45733;52.668;6.860;2024-03-17T10:42:59;1.58;;;1.50;;
59856;SDS011;45733;52.668;6.860;2024-03-17T10:45:26;1.58;;;1.50;;
59856;SDS011;45733;52.668;6.860;2024-03-17T10:47:55;1.75;;;1.65;;
59856;SDS011;45733;52.668;6.860;2024-03-17T10:50:25;1.55;;;1.48;;
59856;SDS011;45733;52.668;6.860;2024-03-17T10:52:55;1.42;;;1.38;;
59856;SDS011;45733;52.668;6.860;2024-03-17T10:55:27;2.00;;;1.90;;
59856;SDS011;45733;52.668;6.860;2024-03-17T10:57:57;2.05;;;1.95;;
59856;SDS011;45733;52.668;6.860;2024-03-17T11:00:29;2.25;;;2.15;;
59856;SDS011;45733;52.668;6.860;2024-03-17T11:02:56;2.80;;;2.65;;
59856;SDS011;45733;52.668;6.860;2024-03-17T11:07:51;2.80;;;2.65;;
59856;SDS011;45733;52.668;6.860;2024-03-17T11:10:27;2.55;;;2.42;;
59856;SDS011;45733;52.668;6.860;2024-03-17T11:12:54;2.65;;;2.53;;
59856;SDS011;45733;52.668;6.860;2024-03-17T11:20:37;2.72;;;2.58;;
59856;SDS011;45733;52.668;6.860;2024-03-17T11:23:04;2.72;;;2.53;;
59856;SDS011;45733;52.668;6.860;2024-03-17T11:46:44;2.35;;;2.25;;
59856;SDS011;45733;52.668;6.860;2024-03-17T11:49:18;2.15;;;2.05;;
59856;SDS011;45733;52.668;6.860;2024-03-17T11:51:48;2.08;;;1.98;;
59856;SDS011;45733;52.668;6.860;2024-03-17T11:54:16;2.10;;;2.00;;
59856;SDS011;45733;52.668;6.860;2024-03-17T11:56:49;1.75;;;1.65;;
59856;SDS011;45733;52.668;6.860;2024-03-17T11:59:17;2.00;;;1.90;;
59856;SDS011;45733;52.668;6.860;2024-03-17T12:01:47;2.00;;;1.90;;
59856;SDS011;45733;52.668;6.860;2024-03-17T12:04:16;2.22;;;2.13;;
59856;SDS011;45733;52.668;6.860;2024-03-17T12:09:22;2.13;;;2.03;;
59856;SDS011;45733;52.668;6.860;2024-03-17T12:12:02;2.17;;;2.08;;
59856;SDS011;45733;52.668;6.860;2024-03-17T12:14:29;1.92;;;1.83;;
59856;SDS011;45733;52.668;6.860;2024-03-17T12:16:56;2.17;;;2.08;;
59856;SDS011;45733;52.668;6.860;2024-03-17T12:19:23;2.10;;;2.00;;
59856;SDS011;45733;52.668;6.860;2024-03-17T12:21:52;1.95;;;1.85;;
59856;SDS011;45733;52.668;6.860;2024-03-17T12:24:32;1.90;;;1.80;;
59856;SDS011;45733;52.668;6.860;2024-03-17T12:27:01;2.03;;;1.92;;
59856;SDS011;45733;52.668;6.860;2024-03-17T12:29:31;2.03;;;1.92;;
59856;SDS011;45733;52.668;6.860;2024-03-17T12:32:04;1.90;;;1.80;;
59856;SDS011;45733;52.668;6.860;2024-03-17T12:34:36;2.05;;;1.95;;
59856;SDS011;45733;52.668;6.860;2024-03-17T12:37:02;1.75;;;1.65;;
59856;SDS011;45733;52.668;6.860;2024-03-17T12:39:30;1.83;;;1.73;;
59856;SDS011;45733;52.668;6.860;2024-03-17T12:42:09;2.30;;;2.20;;
59856;SDS011;45733;52.668;6.860;2024-03-17T12:44:48;1.98;;;1.88;;
59856;SDS011;45733;52.668;6.860;2024-03-17T12:47:19;1.90;;;1.80;;
59856;SDS011;45733;52.668;6.860;2024-03-17T12:49:55;1.90;;;1.80;;
59856;SDS011;45733;52.668;6.860;2024-03-17T12:52:29;1.90;;;1.80;;
59856;SDS011;45733;52.668;6.860;2024-03-17T12:55:03;2.05;;;1.95;;
59856;SDS011;45733;52.668;6.860;2024-03-17T13:01:06;1.92;;;1.83;;
59856;SDS011;45733;52.668;6.860;2024-03-17T13:03:33;1.77;;;1.67;;
59856;SDS011;45733;52.668;6.860;2024-03-17T13:06:06;1.92;;;1.83;;
59856;SDS011;45733;52.668;6.860;2024-03-17T13:08:34;1.98;;;1.88;;
59856;SDS011;45733;52.668;6.860;2024-03-17T13:11:01;2.17;;;2.08;;
59856;SDS011;45733;52.668;6.860;2024-03-17T13:13:29;2.20;;;2.10;;
59856;SDS011;45733;52.668;6.860;2024-03-17T13:15:55;2.13;;;2.03;;
59856;SDS011;45733;52.668;6.860;2024-03-17T13:18:21;2.22;;;2.13;;
59856;SDS011;45733;52.668;6.860;2024-03-17T13:20:47;1.92;;;1.83;;
59856;SDS011;45733;52.668;6.860;2024-03-17T13:23:18;2.20;;;2.10;;
59856;SDS011;45733;52.668;6.860;2024-03-17T13:25:46;2.05;;;1.95;;
59856;SDS011;45733;52.668;6.860;2024-03-17T13:28:13;2.15;;;2.05;;
59856;SDS011;45733;52.668;6.860;2024-03-17T13:30:39;2.25;;;2.15;;
59856;SDS011;45733;52.668;6.860;2024-03-17T13:33:05;2.13;;;2.03;;
59856;SDS011;45733;52.668;6.860;2024-03-17T13:35:34;2.05;;;1.95;;
59856;SDS011;45733;52.668;6.860;2024-03-17T13:38:05;2.17;;;2.08;;
59856;SDS011;45733;52.668;6.860;2024-03-17T13:40:34;1.95;;;1.85;;
59856;SDS011;45733;52.668;6.860;2024-03-17T13:43:02;2.05;;;1.95;;
59856;SDS011;45733;52.668;6.860;2024-03-17T13:45:29;2.05;;;1.95;;
59856;SDS011;45733;52.668;6.860;2024-03-17T13:48:02;2.35;;;2.25;;
59856;SDS011;45733;52.668;6.860;2024-03-17T13:50:35;2.15;;;2.05;;
59856;SDS011;45733;52.668;6.860;2024-03-17T13:53:03;2.05;;;1.95;;
59856;SDS011;45733;52.668;6.860;2024-03-17T13:55:29;2.25;;;2.15;;
59856;SDS011;45733;52.668;6.860;2024-03-17T13:57:55;2.53;;;2.42;;
59856;SDS011;45733;52.668;6.860;2024-03-17T14:00:24;2.40;;;2.30;;
59856;SDS011;45733;52.668;6.860;2024-03-17T14:02:51;2.53;;;2.42;;
59856;SDS011;45733;52.668;6.860;2024-03-17T14:05:18;2.28;;;2.17;;
59856;SDS011;45733;52.668;6.860;2024-03-17T14:07:46;2.45;;;2.35;;
59856;SDS011;45733;52.668;6.860;2024-03-17T14:10:13;2.50;;;2.40;;
59856;SDS011;45733;52.668;6.860;2024-03-17T14:12:42;2.35;;;2.25;;
59856;SDS011;45733;52.668;6.860;2024-03-17T14:15:08;2.53;;;2.42;;
59856;SDS011;45733;52.668;6.860;2024-03-17T14:17:38;2.70;;;2.55;;
59856;SDS011;45733;52.668;6.860;2024-03-17T14:20:05;2.35;;;2.25;;
59856;SDS011;45733;52.668;6.860;2024-03-17T14:22:35;2.63;;;2.53;;
59856;SDS011;45733;52.668;6.860;2024-03-17T14:25:01;2.55;;;2.45;;
59856;SDS011;45733;52.668;6.860;2024-03-17T14:27:27;2.35;;;2.25;;
59856;SDS011;45733;52.668;6.860;2024-03-17T14:29:53;2.30;;;2.20;;
59856;SDS011;45733;52.668;6.860;2024-03-17T14:32:19;2.50;;;2.40;;
59856;SDS011;45733;52.668;6.860;2024-03-17T14:34:46;2.45;;;2.35;;
59856;SDS011;45733;52.668;6.860;2024-03-17T14:37:12;2.15;;;2.05;;
59856;SDS011;45733;52.668;6.860;2024-03-17T14:39:39;2.10;;;2.00;;
59856;SDS011;45733;52.668;6.860;2024-03-17T14:42:05;2.10;;;2.00;;
59856;SDS011;45733;52.668;6.860;2024-03-17T14:44:31;2.40;;;2.30;;
59856;SDS011;45733;52.668;6.860;2024-03-17T14:46:57;2.33;;;2.22;;
59856;SDS011;45733;52.668;6.860;2024-03-17T14:49:23;2.28;;;2.17;;
59856;SDS011;45733;52.668;6.860;2024-03-17T14:51:49;2.38;;;2.28;;
59856;SDS011;45733;52.668;6.860;2024-03-17T14:54:14;2.10;;;2.00;;
59856;SDS011;45733;52.668;6.860;2024-03-17T14:56:40;2.22;;;2.13;;
59856;SDS011;45733;52.668;6.860;2024-03-17T14:59:06;2.00;;;1.90;;
59856;SDS011;45733;52.668;6.860;2024-03-17T15:01:31;2.20;;;2.10;;
59856;SDS011;45733;52.668;6.860;2024-03-17T15:03:57;2.10;;;2.00;;
59856;SDS011;45733;52.668;6.860;2024-03-17T15:06:23;1.90;;;1.80;;
59856;SDS011;45733;52.668;6.860;2024-03-17T15:08:50;2.30;;;2.20;;
59856;SDS011;45733;52.668;6.860;2024-03-17T15:11:16;2.03;;;1.92;;
59856;SDS011;45733;52.668;6.860;2024-03-17T15:13:43;2.17;;;2.08;;
59856;SDS011;45733;52.668;6.860;2024-03-17T15:16:10;1.80;;;1.70;;
59856;SDS011;45733;52.668;6.860;2024-03-17T15:18:37;2.13;;;2.03;;
59856;SDS011;45733;52.668;6.860;2024-03-17T15:21:03;2.15;;;2.05;;
59856;SDS011;45733;52.668;6.860;2024-03-17T15:23:31;2.08;;;1.98;;
59856;SDS011;45733;52.668;6.860;2024-03-17T15:26:01;1.95;;;1.85;;
59856;SDS011;45733;52.668;6.860;2024-03-17T15:28:42;2.05;;;1.95;;
59856;SDS011;45733;52.668;6.860;2024-03-17T15:31:08;2.00;;;1.90;;
59856;SDS011;45733;52.668;6.860;2024-03-17T15:33:35;1.58;;;1.48;;
59856;SDS011;45733;52.668;6.860;2024-03-17T15:36:05;1.90;;;1.80;;
59856;SDS011;45733;52.668;6.860;2024-03-17T15:38:32;1.63;;;1.52;;